Time;durP1;ratioP1;P1;durP2;ratioP2;P2;SDS_P1;SDS_P2;PMS_P1;PMS_P2;Temp;Humidity;BMP_temperature;BMP_pressure;BME280_temperature;BME280_humidity;BME280_pressure;Samples;Min_cycle;Max_cycle;Signal;HPM_P1;HPM_P2
2022/05/05 00:01:45;;;;;;;4.75;0.85;;;;;;;40.61;5.49;100951.88;5104892;28;20081;-61
2022/05/05 00:04:13;;;;;;;3.30;0.85;;;;;;;39.49;5.83;100952.69;5105523;27;20036;-60
2022/05/05 00:06:40;;;;;;;4.82;0.80;;;;;;;40.04;5.71;100936.94;5099082;28;20030;-61
2022/05/05 00:09:07;;;;;;;6.20;0.90;;;;;;;40.18;5.38;100929.91;5101563;27;20028;-61
2022/05/05 00:14:27;;;;;;;2.92;0.77;;;;;;;40.37;5.04;100927.94;5099122;27;20027;-59
2022/05/05 00:16:59;;;;;;;3.00;0.77;;;;;;;40.98;5.54;100930.03;5105858;27;20039;-61
2022/05/05 00:19:28;;;;;;;4.50;0.90;;;;;;;41.18;5.19;100925.97;5100145;27;20049;-61
2022/05/05 00:21:55;;;;;;;4.15;1.00;;;;;;;40.03;5.96;100923.94;5099111;27;20114;-61
2022/05/05 00:24:22;;;;;;;8.70;1.38;;;;;;;39.99;5.63;100917.59;5096448;27;20055;-61
2022/05/05 00:26:49;;;;;;;4.85;1.30;;;;;;;40.68;4.99;100914.53;5084425;28;20024;-60
2022/05/05 00:29:16;;;;;;;7.65;1.50;;;;;;;40.94;5.43;100915.16;5102221;27;20040;-62
2022/05/05 00:31:44;;;;;;;5.85;1.33;;;;;;;40.81;5.30;100920.13;5102055;27;20032;-60
2022/05/05 00:34:11;;;;;;;6.22;1.08;;;;;;;40.34;5.50;100915.44;5098873;27;20024;-60
2022/05/05 00:36:39;;;;;;;4.90;1.05;;;;;;;39.01;6.19;100923.41;5096506;28;20035;-59
2022/05/05 00:39:07;;;;;;;5.88;1.13;;;;;;;38.84;6.19;100922.75;5100866;27;21669;-60
2022/05/05 00:41:36;;;;;;;3.80;1.00;;;;;;;38.72;5.59;100912.16;5103496;27;20111;-61
2022/05/05 00:44:07;;;;;;;3.58;0.90;;;;;;;38.29;6.13;100916.31;5100674;27;20031;-60
2022/05/05 00:46:34;;;;;;;4.68;0.80;;;;;;;38.48;5.65;100906.00;5098095;27;20100;-60
2022/05/05 00:49:02;;;;;;;5.40;1.02;;;;;;;38.53;5.08;100901.78;5109053;27;20022;-60
2022/05/05 00:51:29;;;;;;;6.40;1.25;;;;;;;38.33;5.11;100894.28;5102082;27;20043;-59
2022/05/05 00:53:56;;;;;;;3.15;1.20;;;;;;;38.18;5.52;100901.63;5097180;28;20024;-59
2022/05/05 00:56:24;;;;;;;4.75;0.95;;;;;;;37.89;5.70;100895.97;5090583;28;20104;-59
2022/05/05 00:58:55;;;;;;;3.65;0.80;;;;;;;37.75;6.12;100890.69;5105109;27;20052;-60
2022/05/05 01:01:23;;;;;;;3.38;1.13;;;;;;;37.65;5.78;100897.44;5109101;27;20104;-58
2022/05/05 01:03:50;;;;;;;4.85;0.95;;;;;;;37.39;6.19;100893.69;5108045;27;20028;-60
2022/05/05 01:06:17;;;;;;;2.65;0.80;;;;;;;37.22;6.12;100895.72;5090865;28;20028;-59
2022/05/05 01:08:45;;;;;;;6.68;0.93;;;;;;;36.94;6.20;100891.53;5104621;28;20117;-59
2022/05/05 01:11:12;;;;;;;5.65;1.00;;;;;;;36.86;6.47;100899.44;5108346;27;20031;-59
2022/05/05 01:13:40;;;;;;;4.22;0.77;;;;;;;36.73;6.48;100892.03;5108166;27;20027;-59
2022/05/05 01:16:08;;;;;;;3.47;1.00;;;;;;;36.62;6.57;100884.56;5106490;28;20043;-59
2022/05/05 01:18:35;;;;;;;5.45;1.58;;;;;;;36.44;6.93;100891.88;5105988;28;20070;-59
2022/05/05 01:21:03;;;;;;;4.50;1.30;;;;;;;36.12;6.44;100887.72;5105929;28;20405;-59
2022/05/05 01:23:30;;;;;;;4.30;1.40;;;;;;;36.05;6.29;100885.03;5109076;28;20042;-59
2022/05/05 01:28:46;;;;;;;4.68;1.00;;;;;;;35.50;6.82;100892.13;5103762;28;20036;-60
2022/05/05 01:31:13;;;;;;;5.55;1.00;;;;;;;35.20;7.45;100886.63;5105329;28;20046;-59
2022/05/05 01:33:40;;;;;;;6.00;1.38;;;;;;;35.11;7.34;100882.28;5107928;28;20035;-59
2022/05/05 01:36:07;;;;;;;6.15;1.73;;;;;;;35.07;6.93;100880.78;5107764;28;20055;-58
2022/05/05 01:38:37;;;;;;;4.63;1.50;;;;;;;34.86;7.23;100886.78;5105867;28;20031;-59
2022/05/05 01:41:05;;;;;;;9.25;1.60;;;;;;;34.46;7.80;100878.03;5103879;28;20082;-59
2022/05/05 01:43:33;;;;;;;6.05;1.13;;;;;;;34.28;7.60;100881.06;5105153;28;20043;-59
2022/05/05 01:46:01;;;;;;;5.50;1.15;;;;;;;34.07;7.66;100878.53;5109042;28;20027;-60
2022/05/05 01:48:28;;;;;;;6.28;1.20;;;;;;;33.90;7.73;100886.78;5103040;28;20124;-58
2022/05/05 01:50:55;;;;;;;4.28;0.95;;;;;;;33.66;8.33;100885.03;5103435;28;20032;-58
2022/05/05 01:53:22;;;;;;;5.22;1.00;;;;;;;33.37;8.19;100886.53;5088815;28;20482;-59
2022/05/05 01:55:49;;;;;;;5.82;0.80;;;;;;;33.19;8.28;100889.47;5107301;28;20024;-58
2022/05/05 01:58:16;;;;;;;8.82;1.27;;;;;;;32.89;8.02;100890.16;5107710;28;20415;-58
2022/05/05 02:00:43;;;;;;;5.90;1.17;;;;;;;32.66;8.85;100883.00;5106256;28;20554;-59
2022/05/05 02:03:16;;;;;;;5.78;1.15;;;;;;;32.49;8.99;100880.31;5105692;28;20030;-59
2022/05/05 02:05:44;;;;;;;5.75;1.15;;;;;;;32.22;8.94;100877.22;5107701;28;20039;-59
2022/05/05 02:08:12;;;;;;;4.15;0.82;;;;;;;32.03;9.87;100882.13;5107000;28;20039;-58
2022/05/05 02:10:39;;;;;;;7.75;1.30;;;;;;;31.82;9.57;100883.00;5109521;28;20115;-59
2022/05/05 02:13:07;;;;;;;6.50;1.13;;;;;;;31.72;10.58;100883.00;5105332;28;20032;-59
2022/05/05 02:15:34;;;;;;;6.05;1.38;;;;;;;31.65;10.37;100891.44;5101940;28;20158;-58
2022/05/05 02:18:11;;;;;;;5.70;1.30;;;;;;;31.43;9.71;100887.88;5100854;28;20042;-59
2022/05/05 02:20:40;;;;;;;9.88;1.65;;;;;;;31.43;10.68;100893.50;5102324;28;20044;-59
2022/05/05 02:23:08;;;;;;;6.78;1.42;;;;;;;31.34;10.44;100896.69;5097757;28;20089;-59
2022/05/05 02:25:35;;;;;;;8.20;1.40;;;;;;;31.12;10.07;100897.88;5099929;28;20534;-59
2022/05/05 02:28:02;;;;;;;8.93;1.80;;;;;;;31.08;11.01;100900.69;5100709;28;20068;-58
2022/05/05 02:30:29;;;;;;;5.55;1.63;;;;;;;31.02;11.70;100901.47;5105613;28;20043;-59
2022/05/05 02:32:56;;;;;;;15.02;2.08;;;;;;;30.87;14.96;100901.47;5105051;28;20020;-59
2022/05/05 02:35:24;;;;;;;7.70;2.13;;;;;;;30.54;12.64;100910.19;5104640;28;20020;-58
2022/05/05 02:40:37;;;;;;;6.03;1.63;;;;;;;29.71;11.08;100919.38;5100742;28;20032;-59
2022/05/05 02:43:04;;;;;;;7.20;1.70;;;;;;;29.57;15.46;100914.50;5104414;28;20512;-58
2022/05/05 02:45:31;;;;;;;12.32;1.70;;;;;;;29.49;14.59;100912.84;5104732;27;20039;-58
2022/05/05 02:47:59;;;;;;;8.30;2.75;;;;;;;29.31;12.69;100920.28;5110115;27;20346;-58
2022/05/05 02:50:26;;;;;;;18.48;5.55;;;;;;;29.33;13.18;100915.09;5106040;27;20024;-59
2022/05/05 02:52:54;;;;;;;19.42;10.10;;;;;;;29.07;13.07;100922.44;5109154;27;20031;-58
2022/05/05 02:55:22;;;;;;;18.15;9.55;;;;;;;28.70;13.05;100910.47;5103207;27;20468;-59
2022/05/05 02:57:49;;;;;;;28.65;12.35;;;;;;;28.38;14.07;100922.13;5109960;27;20027;-58
2022/05/05 03:00:16;;;;;;;29.55;11.43;;;;;;;28.39;14.38;100918.13;5105721;27;20028;-59
2022/05/05 03:02:45;;;;;;;20.27;8.77;;;;;;;28.32;16.27;100928.41;5109308;27;20085;-59
2022/05/05 03:05:13;;;;;;;20.23;6.70;;;;;;;28.55;16.73;100929.09;5110395;27;20016;-59
2022/05/05 03:07:41;;;;;;;20.67;6.53;;;;;;;28.59;16.96;100921.56;5112940;27;20059;-59
2022/05/05 03:10:09;;;;;;;22.65;11.93;;;;;;;28.28;14.14;100939.53;5110666;27;20034;-59
2022/05/05 03:12:36;;;;;;;19.98;10.07;;;;;;;28.44;16.22;100936.56;5107331;28;20039;-58
2022/05/05 03:15:03;;;;;;;20.85;8.60;;;;;;;28.32;14.59;100939.59;5109665;27;20055;-58
2022/05/05 03:17:31;;;;;;;18.67;8.43;;;;;;;28.16;14.24;100943.34;5112007;27;20035;-59
2022/05/05 03:19:58;;;;;;;26.75;14.60;;;;;;;28.08;16.30;100940.84;5108654;27;20075;-59
2022/05/05 03:22:25;;;;;;;24.52;9.13;;;;;;;27.98;13.68;100945.91;5090900;28;20073;-58
2022/05/05 03:24:51;;;;;;;17.13;3.97;;;;;;;27.77;14.23;100953.16;5110148;27;20064;-58
2022/05/05 03:27:18;;;;;;;24.50;3.97;;;;;;;27.66;15.67;100953.03;5109498;27;20489;-57
2022/05/05 03:29:45;;;;;;;31.48;6.05;;;;;;;27.52;14.43;100952.75;5105558;27;20374;-58
2022/05/05 03:32:12;;;;;;;63.88;10.10;;;;;;;27.25;14.70;100961.06;5112474;27;20034;-58
2022/05/05 03:34:38;;;;;;;47.72;9.32;;;;;;;27.06;15.08;100964.72;5104287;27;20434;-58
2022/05/05 03:37:05;;;;;;;23.80;5.85;;;;;;;27.00;15.36;100971.00;5109089;27;20061;-58
2022/05/05 03:39:32;;;;;;;33.58;6.70;;;;;;;26.87;16.16;100961.13;5109413;27;20658;-58
2022/05/05 03:41:58;;;;;;;39.15;5.57;;;;;;;26.98;15.92;100968.53;5106776;27;20550;-58
2022/05/05 03:44:25;;;;;;;27.05;3.90;;;;;;;27.34;16.96;100963.63;5108437;27;20055;-58
2022/05/05 03:46:52;;;;;;;30.98;5.03;;;;;;;27.12;16.27;100975.59;5111476;27;20413;-58
2022/05/05 03:49:19;;;;;;;28.08;5.90;;;;;;;26.93;15.73;100977.22;5108916;27;20036;-58
2022/05/05 03:51:46;;;;;;;30.20;5.38;;;;;;;26.69;16.22;100986.69;5109855;27;20036;-58
2022/05/05 03:54:12;;;;;;;32.20;6.95;;;;;;;26.61;16.15;100993.31;5099663;27;20708;-58
2022/05/05 03:56:40;;;;;;;34.55;7.97;;;;;;;26.61;15.76;100996.09;5105075;27;20039;-58
2022/05/05 03:59:06;;;;;;;57.47;10.70;;;;;;;26.58;16.25;100990.47;5109084;27;20084;-58
2022/05/05 04:01:36;;;;;;;57.05;13.05;;;;;;;26.46;15.83;100991.41;5092603;28;20059;-58
2022/05/05 04:04:03;;;;;;;58.65;12.98;;;;;;;26.36;16.01;100998.34;5107810;27;20470;-58
2022/05/05 04:06:30;;;;;;;48.80;10.30;;;;;;;26.27;16.54;100997.72;5107484;27;20118;-57
2022/05/05 04:08:58;;;;;;;77.25;14.00;;;;;;;26.20;16.74;101003.13;5105249;27;20039;-59
2022/05/05 04:11:24;;;;;;;52.90;13.82;;;;;;;26.14;16.31;101008.19;5110601;27;20065;-58
2022/05/05 04:13:51;;;;;;;74.20;12.43;;;;;;;26.14;16.38;101008.19;5104884;27;20047;-57
2022/05/05 04:16:18;;;;;;;63.40;11.38;;;;;;;26.05;17.13;101004.81;5106897;27;20114;-58
2022/05/05 04:18:45;;;;;;;84.13;11.68;;;;;;;25.91;17.04;101012.81;5094874;27;20040;-59
2022/05/05 04:21:12;;;;;;;88.13;13.25;;;;;;;25.93;17.24;101021.63;5097331;27;20107;-58
2022/05/05 04:23:39;;;;;;;88.95;13.65;;;;;;;25.93;18.16;101018.84;5102875;28;20560;-58
2022/05/05 04:26:06;;;;;;;86.32;13.95;;;;;;;26.07;17.17;101024.75;5101021;27;20024;-58
2022/05/05 04:28:33;;;;;;;93.78;14.50;;;;;;;26.16;17.11;101033.69;5102063;28;20040;-59
2022/05/05 04:31:00;;;;;;;100.47;14.40;;;;;;;26.17;19.09;101024.16;5098575;28;20169;-58
2022/05/05 04:33:27;;;;;;;89.93;15.60;;;;;;;26.13;18.41;101034.44;5102923;27;20032;-59
2022/05/05 04:35:54;;;;;;;92.25;15.90;;;;;;;26.06;17.35;101039.84;5096806;28;20030;-58
2022/05/05 04:38:21;;;;;;;105.45;15.98;;;;;;;25.98;16.80;101035.25;5100231;28;20043;-58
2022/05/05 04:40:49;;;;;;;102.43;15.80;;;;;;;25.71;17.25;101041.78;5095180;28;20028;-58
2022/05/05 04:43:16;;;;;;;92.40;16.00;;;;;;;25.53;17.32;101039.31;5106022;28;20035;-58
2022/05/05 04:45:43;;;;;;;69.25;14.10;;;;;;;25.40;17.45;101045.31;5098617;28;20031;-58
2022/05/05 04:48:10;;;;;;;86.88;14.77;;;;;;;25.27;17.87;101037.03;5097835;28;20122;-58
2022/05/05 04:50:37;;;;;;;111.47;16.33;;;;;;;25.22;17.94;101039.25;5099763;28;20040;-58
2022/05/05 04:53:04;;;;;;;89.38;15.70;;;;;;;25.12;18.93;101043.34;5106627;28;20034;-58
2022/05/05 04:55:31;;;;;;;109.53;16.35;;;;;;;25.08;18.53;101044.44;5099613;28;20134;-57
2022/05/05 04:57:57;;;;;;;101.97;16.90;;;;;;;25.00;18.66;101044.25;5105224;28;20031;-58
2022/05/05 05:00:24;;;;;;;89.00;16.45;;;;;;;25.01;18.02;101045.06;5099621;28;20481;-58
2022/05/05 05:02:51;;;;;;;93.68;15.65;;;;;;;24.99;18.33;101058.47;5097377;28;20058;-58
2022/05/05 05:05:18;;;;;;;82.07;15.70;;;;;;;25.00;18.16;101065.69;5100445;27;20157;-58
2022/05/05 05:07:44;;;;;;;83.85;16.65;;;;;;;24.95;18.00;101060.31;5099539;28;20093;-58
2022/05/05 05:10:11;;;;;;;91.90;17.38;;;;;;;24.90;18.25;101063.38;5105228;28;20245;-58
2022/05/05 05:12:38;;;;;;;73.53;16.35;;;;;;;24.80;19.00;101061.91;5099992;28;20172;-58
2022/05/05 05:15:06;;;;;;;91.00;18.60;;;;;;;24.77;18.82;101068.16;5110834;27;20030;-59
2022/05/05 05:17:33;;;;;;;75.40;17.52;;;;;;;24.68;19.24;101061.94;5123537;27;20031;-59
2022/05/05 05:20:00;;;;;;;97.25;17.90;;;;;;;24.52;19.84;101064.63;5106627;28;20039;-59
2022/05/05 05:22:27;;;;;;;97.57;18.00;;;;;;;24.81;20.08;101069.09;5106034;28;20035;-59
2022/05/05 05:24:54;;;;;;;95.82;17.08;;;;;;;24.84;20.55;101073.94;5084839;28;20034;-59
2022/05/05 05:27:20;;;;;;;86.88;17.60;;;;;;;24.96;20.27;101065.56;5108328;28;20081;-59
2022/05/05 05:29:47;;;;;;;120.00;18.13;;;;;;;24.80;20.11;101064.69;5104355;28;20590;-60
2022/05/05 05:32:14;;;;;;;93.55;16.73;;;;;;;24.48;19.74;101065.69;5107142;28;20464;-60
2022/05/05 05:34:41;;;;;;;99.25;18.63;;;;;;;24.23;20.45;101067.66;5106838;28;20441;-60
2022/05/05 05:37:08;;;;;;;118.22;18.75;;;;;;;24.23;20.62;101076.78;5107716;28;20023;-59
2022/05/05 05:39:34;;;;;;;97.22;19.13;;;;;;;24.13;20.43;101068.16;5107558;28;20424;-60
2022/05/05 05:42:01;;;;;;;90.97;18.25;;;;;;;23.93;21.10;101073.47;5104223;28;20094;-60
2022/05/05 05:44:28;;;;;;;88.72;18.63;;;;;;;23.77;21.47;101062.22;5106594;28;20035;-60
2022/05/05 05:46:55;;;;;;;102.47;19.73;;;;;;;24.04;21.61;101066.28;5107281;28;20036;-60
2022/05/05 05:49:21;;;;;;;105.82;21.50;;;;;;;24.00;21.61;101059.00;5108019;28;20035;-58
2022/05/05 05:51:48;;;;;;;103.47;21.27;;;;;;;23.85;21.97;101066.03;5107443;28;20035;-60
2022/05/05 05:54:17;;;;;;;81.40;21.75;;;;;;;23.63;22.41;101058.97;5094309;28;20046;-59
2022/05/05 05:56:45;;;;;;;112.78;25.38;;;;;;;23.53;22.55;101062.19;5092864;28;20023;-60
2022/05/05 05:59:12;;;;;;;124.22;26.15;;;;;;;23.52;22.78;101058.59;5107991;28;20531;-60
2022/05/05 06:04:24;;;;;;;120.13;26.42;;;;;;;23.68;22.47;101063.47;5107876;28;20474;-60
2022/05/05 06:06:52;;;;;;;118.20;25.90;;;;;;;23.67;22.61;101059.91;5112149;28;20062;-60
2022/05/05 06:09:18;;;;;;;121.22;26.75;;;;;;;23.60;22.14;101053.31;5107745;28;20431;-59
2022/05/05 06:11:49;;;;;;;118.03;27.27;;;;;;;23.40;23.13;101060.53;5103421;28;20504;-59
2022/05/05 06:14:16;;;;;;;104.78;26.70;;;;;;;23.34;23.36;101054.41;5104756;28;20035;-62
2022/05/05 06:16:43;;;;;;;129.48;27.83;;;;;;;23.31;23.51;101057.03;5110643;28;20023;-59
2022/05/05 06:19:10;;;;;;;127.65;26.35;;;;;;;23.23;23.10;101060.72;5113469;28;20061;-59
2022/05/05 06:21:36;;;;;;;115.30;26.73;;;;;;;23.26;23.10;101055.28;5116102;28;20043;-59
2022/05/05 06:24:04;;;;;;;125.30;27.65;;;;;;;23.25;23.54;101069.50;5102093;28;20047;-60
2022/05/05 06:26:30;;;;;;;129.88;27.40;;;;;;;23.17;23.71;101069.25;5116346;27;20064;-59
2022/05/05 06:28:57;;;;;;;124.38;28.58;;;;;;;23.13;23.87;101068.28;5122473;27;20034;-61
2022/05/05 06:31:24;;;;;;;140.85;28.60;;;;;;;23.05;23.98;101071.97;5115775;28;20055;-61
2022/05/05 06:33:50;;;;;;;135.35;28.65;;;;;;;23.01;24.39;101075.78;5113739;28;20028;-61
2022/05/05 06:36:18;;;;;;;120.65;27.30;;;;;;;23.02;23.60;101066.31;5110717;28;20682;-61
2022/05/05 06:38:44;;;;;;;111.90;26.48;;;;;;;22.97;24.12;101078.38;5103267;28;20028;-61
2022/05/05 06:41:12;;;;;;;115.75;28.65;;;;;;;22.87;24.40;101081.59;5112260;28;20012;-60
2022/05/05 06:43:39;;;;;;;125.05;28.98;;;;;;;22.81;24.75;101088.47;5103778;28;20040;-61
2022/05/05 06:46:05;;;;;;;110.00;28.52;;;;;;;22.77;25.00;101085.53;5113695;28;20055;-58
2022/05/05 06:48:32;;;;;;;102.65;28.95;;;;;;;22.73;25.39;101092.09;5108031;27;20032;-58
2022/05/05 06:50:59;;;;;;;119.90;29.13;;;;;;;22.74;25.03;101093.72;5116703;27;20029;-60
2022/05/05 06:53:26;;;;;;;121.63;29.10;;;;;;;22.82;25.58;101095.66;5119264;27;20032;-58
2022/05/05 06:55:55;;;;;;;110.43;27.63;;;;;;;22.67;25.00;101093.47;5120371;27;20030;-59
2022/05/05 06:58:23;;;;;;;112.95;27.30;;;;;;;22.66;25.11;101094.59;5080492;28;20067;-59
2022/05/05 07:03:35;;;;;;;112.55;25.90;;;;;;;22.76;25.02;101099.72;5118725;27;20405;-58
2022/05/05 07:06:01;;;;;;;105.70;26.38;;;;;;;22.75;24.54;101100.88;5113284;28;20036;-58
2022/05/05 07:10:52;;;;;;;93.45;25.70;;;;;;;22.65;24.36;101091.03;5117872;27;20062;-58
2022/05/05 07:11:16;;;;;;;121.13;28.15;;;;;;;22.83;25.17;101097.28;5114571;27;20126;-58
2022/05/05 07:13:43;;;;;;;85.53;25.02;;;;;;;22.92;24.13;101095.22;5123853;27;20094;-59
2022/05/05 07:16:10;;;;;;;99.20;27.45;;;;;;;22.86;24.62;101093.81;5119665;27;20038;-58
2022/05/05 07:18:36;;;;;;;97.53;26.52;;;;;;;22.80;25.04;101104.28;5117446;27;20028;-59
2022/05/05 07:21:04;;;;;;;91.28;26.75;;;;;;;22.77;25.68;101104.13;5110342;28;20074;-59
2022/05/05 07:23:31;;;;;;;102.00;26.38;;;;;;;22.60;25.54;101094.78;5110728;28;20435;-60
2022/05/05 07:25:58;;;;;;;111.38;26.10;;;;;;;22.44;25.53;101104.88;5107122;28;20111;-58
2022/05/05 07:28:25;;;;;;;105.60;25.48;;;;;;;22.71;25.21;101106.28;5115806;27;20023;-58
2022/05/05 07:30:53;;;;;;;109.57;26.08;;;;;;;22.76;25.10;101108.84;5113660;27;20035;-58
2022/05/05 07:33:21;;;;;;;104.60;25.33;;;;;;;22.73;25.41;101109.53;5108647;28;20020;-58
2022/05/05 07:35:48;;;;;;;98.53;26.55;;;;;;;22.85;25.70;101106.06;5114258;27;20032;-58
2022/05/05 07:38:15;;;;;;;111.72;26.42;;;;;;;22.96;25.57;101112.00;5106820;28;20023;-58
2022/05/05 07:40:42;;;;;;;113.55;27.33;;;;;;;22.94;25.27;101103.19;5109674;28;20092;-58
2022/05/05 07:43:10;;;;;;;108.20;26.75;;;;;;;22.60;26.02;101111.41;5088354;28;20032;-58
2022/05/05 07:45:36;;;;;;;119.63;28.77;;;;;;;22.74;25.25;101115.88;5106189;28;20032;-58
2022/05/05 07:48:03;;;;;;;115.28;26.98;;;;;;;22.56;25.06;101121.53;5104929;28;20028;-59
2022/05/05 07:50:30;;;;;;;103.60;27.10;;;;;;;22.67;24.63;101110.91;5103575;28;20051;-58
2022/05/05 07:52:57;;;;;;;124.35;31.08;;;;;;;22.63;24.99;101123.00;5102677;28;20438;-58
2022/05/05 07:55:23;;;;;;;91.10;27.08;;;;;;;22.58;25.05;101123.97;5104475;28;20371;-58
2022/05/05 07:57:50;;;;;;;90.28;26.33;;;;;;;22.74;24.27;101126.97;5108183;27;20031;-58
2022/05/05 08:00:17;;;;;;;85.00;25.77;;;;;;;22.59;24.51;101123.63;5110886;27;20028;-58
2022/05/05 08:02:44;;;;;;;84.60;24.05;;;;;;;22.51;24.45;101118.97;5114060;28;20427;-58
2022/05/05 08:05:12;;;;;;;78.95;21.80;;;;;;;22.58;23.93;101113.72;5109620;28;20011;-58
2022/05/05 08:07:45;;;;;;;104.32;24.48;;;;;;;22.57;24.13;101109.31;5105973;28;20033;-58
2022/05/05 08:10:12;;;;;;;74.10;21.70;;;;;;;22.51;24.55;101115.41;5107210;28;20036;-58
2022/05/05 08:12:39;;;;;;;82.22;23.30;;;;;;;22.45;24.85;101108.44;5102503;28;20027;-58
2022/05/05 08:15:07;;;;;;;66.93;20.40;;;;;;;22.30;24.61;101112.59;5109064;28;20055;-58
2022/05/05 08:17:34;;;;;;;76.07;21.73;;;;;;;22.41;24.99;101102.75;5109252;28;20016;-58
2022/05/05 08:20:04;;;;;;;70.57;21.23;;;;;;;22.42;24.26;101103.53;5109891;28;20032;-59
2022/05/05 08:22:30;;;;;;;71.25;20.67;;;;;;;22.23;24.15;101101.22;5108269;28;20058;-59
2022/05/05 08:30:27;;;;;;;;;;;;;;;22.02;25.50;101092.81;5113678;28;20040;-60
2022/05/05 08:32:53;;;;;;;72.32;21.20;;;;;;;;;;5112929;28;19912;-60
2022/05/05 08:35:22;;;;;;;84.13;22.33;;;;;;;21.90;25.59;101082.47;5112330;28;20505;-60
2022/05/05 08:37:52;;;;;;;61.75;20.77;;;;;;;21.97;25.68;101085.53;5112929;28;20020;-60
2022/05/05 08:40:28;;;;;;;80.05;22.13;;;;;;;21.89;25.55;101086.38;5108355;28;20060;-61
2022/05/05 08:42:55;;;;;;;86.60;21.05;;;;;;;21.96;27.02;101085.88;5107684;28;20026;-60
2022/05/05 08:45:22;;;;;;;71.00;20.63;;;;;;;22.06;25.73;101085.50;5108294;28;20060;-60
2022/05/05 08:47:51;;;;;;;56.08;19.95;;;;;;;21.96;25.85;101072.84;5105808;28;20028;-60
2022/05/05 08:50:20;;;;;;;74.32;22.25;;;;;;;22.09;25.21;101078.50;5105320;28;20256;-60
2022/05/05 08:52:49;;;;;;;71.50;20.70;;;;;;;22.09;25.81;101072.97;5107478;28;20028;-59
2022/05/05 08:55:20;;;;;;;70.97;23.30;;;;;;;21.98;25.41;101073.31;5113626;27;20450;-59
2022/05/05 08:57:47;;;;;;;73.03;21.40;;;;;;;21.96;25.63;101072.84;5111813;27;20035;-59
2022/05/05 09:00:16;;;;;;;73.13;20.90;;;;;;;22.05;25.39;101067.28;5104793;28;20023;-59
2022/05/05 09:02:43;;;;;;;66.05;19.73;;;;;;;21.99;26.83;101069.41;5106027;28;20038;-59
2022/05/05 09:05:10;;;;;;;63.60;19.05;;;;;;;22.09;25.75;101075.75;5108238;28;20564;-58
2022/05/05 09:07:52;;;;;;;67.45;18.88;;;;;;;21.82;25.55;101068.66;5111974;28;20035;-59
2022/05/05 09:10:20;;;;;;;73.75;19.85;;;;;;;21.71;25.73;101076.50;5108141;28;20036;-59
2022/05/05 09:13:01;;;;;;;63.22;18.85;;;;;;;21.65;25.82;101075.88;5107975;28;20042;-59
2022/05/05 09:15:33;;;;;;;61.08;17.60;;;;;;;21.61;25.77;101074.13;5108117;28;20020;-58
2022/05/05 09:18:20;;;;;;;57.20;17.88;;;;;;;21.68;25.80;101077.19;5109481;28;20366;-58
2022/05/05 09:20:49;;;;;;;58.67;16.15;;;;;;;21.69;25.97;101068.53;5102566;28;20492;-58
2022/05/05 09:26:30;;;;;;;63.20;17.73;;;;;;;21.38;26.76;101066.06;5102412;28;20401;-58
2022/05/05 09:28:58;;;;;;;79.50;18.65;;;;;;;21.30;27.54;101068.81;5118400;27;20504;-59
2022/05/05 09:31:25;;;;;;;97.15;21.40;;;;;;;21.26;26.85;101070.63;5111571;27;20112;-59
2022/05/05 09:33:52;;;;;;;86.30;23.13;;;;;;;21.44;26.42;101079.69;5127663;28;20453;-59
2022/05/05 09:36:28;;;;;;;94.57;24.83;;;;;;;21.71;25.63;101080.09;5106100;28;20026;-59
2022/05/05 09:39:05;;;;;;;92.05;23.95;;;;;;;21.78;26.20;101076.00;5110754;28;20028;-58
2022/05/05 09:41:42;;;;;;;87.25;24.45;;;;;;;21.69;25.83;101076.03;5106039;28;20039;-59
2022/05/05 09:44:18;;;;;;;91.22;24.80;;;;;;;21.62;25.99;101075.75;5095911;28;20023;-59
2022/05/05 09:46:44;;;;;;;120.20;26.38;;;;;;;21.78;27.57;101081.53;5112705;28;20489;-59
2022/05/05 09:49:21;;;;;;;92.25;24.55;;;;;;;21.70;26.49;101083.19;5086740;28;20101;-58
2022/05/05 09:57:43;;;;;;;80.32;19.67;;;;;;;21.46;27.18;101077.41;5093536;28;20039;-58
2022/05/05 10:05:46;;;;;;;46.13;12.38;;;;;;;21.44;27.60;101086.03;5114636;28;20035;-58
2022/05/05 10:08:24;;;;;;;39.95;11.25;;;;;;;21.41;27.68;101087.50;5111844;28;20024;-58
2022/05/05 10:10:52;;;;;;;32.22;10.88;;;;;;;21.37;28.20;101085.75;5116476;28;20036;-58
2022/05/05 10:13:20;;;;;;;37.78;9.52;;;;;;;21.29;28.08;101092.91;5091310;28;20115;-59
2022/05/05 10:15:52;;;;;;;36.78;9.68;;;;;;;21.21;28.08;101090.13;5114918;28;20074;-59
2022/05/05 10:18:20;;;;;;;38.85;9.93;;;;;;;21.13;28.29;101089.78;5114088;28;20489;-59
2022/05/05 10:20:47;;;;;;;40.88;10.50;;;;;;;21.12;28.18;101095.66;5111016;28;20507;-59
2022/05/05 10:23:45;;;;;;;27.83;8.95;;;;;;;21.18;27.92;101099.06;5116531;28;20038;-59
2022/05/05 10:26:13;;;;;;;29.95;7.80;;;;;;;21.20;27.62;101096.81;5097430;28;20126;-58
2022/05/05 10:28:47;;;;;;;27.73;7.28;;;;;;;21.28;27.78;101096.00;5120408;27;20061;-59
2022/05/05 10:31:35;;;;;;;26.65;6.82;;;;;;;21.33;27.87;101098.56;5118147;27;20385;-58
2022/05/05 10:34:07;;;;;;;30.10;6.82;;;;;;;21.27;28.00;101102.66;5099394;28;20434;-58
2022/05/05 10:36:35;;;;;;;35.83;8.65;;;;;;;21.27;27.64;101097.94;5116231;28;20027;-58
2022/05/05 10:39:21;;;;;;;25.55;7.97;;;;;;;21.03;28.57;101103.16;5111085;28;20020;-59
2022/05/05 10:41:51;;;;;;;30.92;9.60;;;;;;;21.01;28.32;101100.72;5114267;28;20119;-58
2022/05/05 10:44:20;;;;;;;28.05;9.23;;;;;;;20.89;28.20;101102.50;5113275;28;20031;-59
2022/05/05 10:46:58;;;;;;;29.80;9.73;;;;;;;20.90;28.27;101099.41;5110889;28;20036;-59
2022/05/05 10:49:40;;;;;;;28.50;9.20;;;;;;;20.81;28.14;101107.69;5115927;28;20043;-59
2022/05/05 10:52:09;;;;;;;26.33;8.95;;;;;;;21.04;28.41;101104.78;5094086;28;20043;-60
2022/05/05 10:54:41;;;;;;;30.50;9.02;;;;;;;21.12;27.69;101099.22;5115871;28;20024;-60
2022/05/05 10:57:30;;;;;;;27.25;9.18;;;;;;;20.93;28.31;101097.94;5110758;28;20031;-59
2022/05/05 11:00:19;;;;;;;30.70;9.52;;;;;;;20.84;28.33;101095.19;5100531;28;20048;-59
2022/05/05 11:02:58;;;;;;;36.40;9.70;;;;;;;20.75;28.28;101091.59;5090984;28;20039;-58
2022/05/05 11:05:36;;;;;;;37.70;10.43;;;;;;;20.93;28.21;101093.22;5096692;28;20035;-58
2022/05/05 11:08:17;;;;;;;35.95;10.23;;;;;;;20.94;28.25;101099.56;5115276;28;20035;-59
2022/05/05 11:13:43;;;;;;;39.23;11.67;;;;;;;20.57;29.17;101101.81;5110523;28;20059;-58
2022/05/05 11:22:09;;;;;;;39.30;11.00;;;;;;;20.39;28.88;101100.94;5110259;28;20032;-58
2022/05/05 11:24:38;;;;;;;46.85;10.75;;;;;;;20.38;29.23;101104.84;5110380;28;20071;-59
2022/05/05 11:27:10;;;;;;;36.10;10.18;;;;;;;20.69;28.54;101098.44;5115171;28;20032;-59
2022/05/05 11:29:38;;;;;;;25.45;8.25;;;;;;;20.69;28.70;101099.25;5109871;28;20032;-59
2022/05/05 11:32:08;;;;;;;26.42;7.72;;;;;;;20.60;28.50;101103.13;5119001;27;20027;-59
2022/05/05 11:34:37;;;;;;;28.52;5.85;;;;;;;20.60;29.04;101100.34;5115099;28;20040;-59
2022/05/05 11:37:05;;;;;;;17.83;5.78;;;;;;;20.53;28.46;101095.31;5109856;28;20046;-59
2022/05/05 11:39:34;;;;;;;15.93;5.45;;;;;;;20.49;28.84;101099.88;5115094;28;20580;-59
2022/05/05 11:42:08;;;;;;;15.60;4.90;;;;;;;20.52;28.88;101110.25;5109912;28;20465;-59
2022/05/05 11:44:37;;;;;;;17.50;4.97;;;;;;;20.45;28.74;101112.66;5110026;28;20036;-59
2022/05/05 11:47:17;;;;;;;18.52;5.47;;;;;;;20.36;29.53;101117.34;5114500;28;21000;-59
2022/05/05 11:49:47;;;;;;;23.70;5.47;;;;;;;20.52;28.87;101110.25;5109788;28;20035;-59
2022/05/05 11:52:18;;;;;;;24.25;5.60;;;;;;;20.31;29.56;101109.22;5109630;28;20036;-59
2022/05/05 11:54:47;;;;;;;17.95;5.88;;;;;;;20.33;29.42;101112.47;5114420;28;20031;-59
2022/05/05 11:57:31;;;;;;;41.47;7.38;;;;;;;20.32;29.55;101108.88;5109889;28;20031;-58
2022/05/05 12:02:45;;;;;;;22.27;6.78;;;;;;;20.16;29.71;101119.56;5104177;28;20034;-59
2022/05/05 12:05:13;;;;;;;30.65;6.88;;;;;;;20.15;29.45;101115.16;5114060;28;20043;-59
2022/05/05 12:07:44;;;;;;;29.13;6.03;;;;;;;20.28;29.68;101118.91;5109485;28;20054;-58